Time;durP1;ratioP1;P1;durP2;ratioP2;P2;SDS_P1;SDS_P2;PMS_P1;PMS_P2;Temp;Humidity;BMP_temperature;BMP_pressure;BME280_temperature;BME280_humidity;BME280_pressure;Samples;Min_cycle;Max_cycle;Signal;HPM_P1;HPM_P2
2022/11/26 00:02:34;;;;;;;13.73;4.07;;;;;;;;;;5033023;28;20057;-63
2022/11/26 00:05:04;;;;;;;11.88;4.25;;;;;;;;;;5019789;28;20052;-62
2022/11/26 00:07:35;;;;;;;18.20;4.22;;;;;;;;;;5029874;28;20201;-62
2022/11/26 00:10:27;;;;;;;15.10;4.93;;;;;;;;;;5036178;28;20060;-61
2022/11/26 00:12:58;;;;;;;14.43;4.82;;;;;;;;;;4993267;28;20132;-62
2022/11/26 00:15:30;;;;;;;24.40;5.25;;;;;;;;;;4992311;28;20069;-62
2022/11/26 00:18:01;;;;;;;14.07;5.72;;;;;;;;;;4951623;28;20054;-62
2022/11/26 00:20:31;;;;;;;16.73;4.72;;;;;;;;;;4919315;28;20066;-62
2022/11/26 00:23:03;;;;;;;13.02;4.45;;;;;;;;;;4953731;28;20059;-62
2022/11/26 00:25:46;;;;;;;19.98;4.32;;;;;;;;;;4948721;28;20440;-61
2022/11/26 00:28:35;;;;;;;13.52;5.32;;;;;;;;;;4956403;28;20089;-62
2022/11/26 00:31:15;;;;;;;12.45;4.47;;;;;;;;;;4923696;28;20507;-62
2022/11/26 00:33:59;;;;;;;17.38;5.50;;;;;;;;;;4926692;29;20075;-61
2022/11/26 00:36:32;;;;;;;18.88;4.60;;;;;;;;;;4895871;29;20097;-62
2022/11/26 00:39:24;;;;;;;12.57;5.72;;;;;;;;;;4908589;29;20068;-63
2022/11/26 00:42:16;;;;;;;16.13;5.55;;;;;;;;;;4915188;29;20043;-61
2022/11/26 00:44:47;;;;;;;21.13;5.60;;;;;;;;;;4900208;29;20807;-61
2022/11/26 00:47:17;;;;;;;19.48;6.38;;;;;;;;;;4926408;29;20455;-62
2022/11/26 00:49:47;;;;;;;17.63;6.88;;;;;;;;;;4931330;29;20499;-62
2022/11/26 00:52:32;;;;;;;17.30;7.38;;;;;;;;;;4932363;29;20432;-61
2022/11/26 00:55:09;;;;;;;23.08;7.35;;;;;;;;;;4946800;28;20068;-62
2022/11/26 00:57:39;;;;;;;15.32;7.05;;;;;;;;;;4956073;28;20065;-63
2022/11/26 01:00:18;;;;;;;31.58;8.48;;;;;;;;;;4964350;28;20051;-63
2022/11/26 01:02:48;;;;;;;29.45;7.75;;;;;;;;;;4948960;29;20044;-62
2022/11/26 01:05:21;;;;;;;24.58;6.85;;;;;;;;;;4903528;29;20512;-62
2022/11/26 01:07:52;;;;;;;16.15;6.30;;;;;;;;;;4950940;29;20066;-63
2022/11/26 01:10:27;;;;;;;22.25;6.00;;;;;;;;;;4952729;28;20067;-62
2022/11/26 01:12:57;;;;;;;20.50;7.03;;;;;;;;;;4989872;28;20186;-65
2022/11/26 01:15:48;;;;;;;17.88;6.93;;;;;;;;;;4970602;28;20731;-64
2022/11/26 01:18:20;;;;;;;21.55;5.85;;;;;;;;;;4989343;28;20043;-64
2022/11/26 01:20:51;;;;;;;17.15;5.53;;;;;;;;;;4957689;28;20506;-64
2022/11/26 01:23:21;;;;;;;13.10;5.15;;;;;;;;;;4973958;28;20426;-63
2022/11/26 01:25:53;;;;;;;15.57;5.07;;;;;;;;;;4986713;28;20054;-65
2022/11/26 01:28:23;;;;;;;21.30;5.63;;;;;;;;;;4983397;28;20050;-64
2022/11/26 01:30:57;;;;;;;23.65;5.90;;;;;;;;;;4970368;28;20058;-64
2022/11/26 01:33:28;;;;;;;18.20;6.03;;;;;;;;;;4986284;28;20046;-64
2022/11/26 01:36:33;;;;;;;12.35;5.35;;;;;;;;;;5023711;28;20049;-64
2022/11/26 01:39:09;;;;;;;18.90;5.05;;;;;;;;;;4979155;28;20657;-64
2022/11/26 01:42:17;;;;;;;15.93;5.57;;;;;;;;;;4969391;28;20055;-64
2022/11/26 01:44:47;;;;;;;18.77;5.38;;;;;;;;;;4898235;29;20048;-62
2022/11/26 01:47:27;;;;;;;13.27;4.88;;;;;;;;;;4911862;29;20052;-63
2022/11/26 01:50:27;;;;;;;14.30;4.78;;;;;;;;;;4910819;29;20417;-64
2022/11/26 01:53:04;;;;;;;13.73;5.18;;;;;;;;;;4911781;29;20048;-65
2022/11/26 01:55:43;;;;;;;15.52;6.07;;;;;;;;;;4913818;29;20119;-64
2022/11/26 01:58:20;;;;;;;15.45;5.82;;;;;;;;;;4921671;29;20044;-64
2022/11/26 02:00:50;;;;;;;17.40;5.78;;;;;;;;;;4905367;29;20093;-64
2022/11/26 02:03:24;;;;;;;14.80;5.70;;;;;;;;;;4919272;29;20052;-64
2022/11/26 02:06:10;;;;;;;14.40;5.13;;;;;;;;;;4921007;29;20099;-64
2022/11/26 02:08:41;;;;;;;21.60;6.75;;;;;;;;;;4911531;29;20052;-63
2022/11/26 02:11:18;;;;;;;11.30;5.55;;;;;;;;;;4954215;28;20503;-63
2022/11/26 02:13:55;;;;;;;18.52;5.30;;;;;;;;;;4936882;28;20070;-63
2022/11/26 02:16:32;;;;;;;11.50;5.20;;;;;;;;;;4969336;28;20050;-62
2022/11/26 02:19:41;;;;;;;14.73;5.78;;;;;;;;;;4976476;28;20058;-62
2022/11/26 02:22:36;;;;;;;21.48;5.30;;;;;;;;;;4910021;28;20050;-62
2022/11/26 02:25:20;;;;;;;12.93;5.57;;;;;;;;;;4952790;28;20055;-62
2022/11/26 02:28:26;;;;;;;24.05;5.82;;;;;;;;;;4992258;28;20073;-62
2022/11/26 02:31:28;;;;;;;15.38;5.75;;;;;;;;;;5008034;28;20054;-64
2022/11/26 02:34:07;;;;;;;15.23;5.40;;;;;;;;;;5008089;28;20506;-62
2022/11/26 02:36:50;;;;;;;15.50;5.18;;;;;;;;;;5008179;28;20054;-63
2022/11/26 02:39:24;;;;;;;10.82;4.47;;;;;;;;;;4978538;28;20053;-63
2022/11/26 02:41:57;;;;;;;15.82;5.40;;;;;;;;;;4979356;28;20058;-63
2022/11/26 02:44:44;;;;;;;11.70;5.13;;;;;;;;;;4979215;28;20049;-63
2022/11/26 02:47:18;;;;;;;16.08;5.63;;;;;;;;;;5011960;28;20058;-63
2022/11/26 02:49:50;;;;;;;14.85;5.60;;;;;;;;;;5011907;28;20046;-63
2022/11/26 02:52:22;;;;;;;16.10;5.95;;;;;;;;;;5011676;28;20053;-65
2022/11/26 02:54:54;;;;;;;20.42;5.07;;;;;;;;;;5011929;28;20530;-63
2022/11/26 02:57:26;;;;;;;;;;;;;;;;;;5012240;28;20053;-63
2022/11/26 02:59:56;;;;;;;17.88;5.47;;;;;;;;;;5079930;28;19927;-63
2022/11/26 03:02:45;;;;;;;16.77;5.20;;;;;;;;;;5058661;28;20051;-63
2022/11/26 03:05:17;;;;;;;12.65;5.28;;;;;;;;;;5058807;28;20048;-62
2022/11/26 03:07:49;;;;;;;;;;;;;;;;;;5059588;28;20044;-63
2022/11/26 03:10:28;;;;;;;13.05;5.70;;;;;;;;;;5009286;28;19920;-63
2022/11/26 03:12:59;;;;;;;15.30;4.90;;;;;;;;;;5093345;28;20048;-63
2022/11/26 03:15:30;;;;;;;17.40;5.63;;;;;;;;;;5058299;28;20048;-65
2022/11/26 03:18:00;;;;;;;15.80;4.95;;;;;;;;;;5093774;28;20395;-63
2022/11/26 03:20:30;;;;;;;11.07;4.43;;;;;;;;;;5093947;28;20040;-63
2022/11/26 03:23:00;;;;;;;16.17;5.70;;;;;;;;;;5093895;28;20499;-63
2022/11/26 03:25:30;;;;;;;11.25;4.82;;;;;;;;;;5076265;28;20037;-63
2022/11/26 03:28:01;;;;;;;13.02;4.95;;;;;;;;;;5074720;28;20055;-63
2022/11/26 03:30:31;;;;;;;12.80;5.47;;;;;;;;;;5093745;28;20441;-64
2022/11/26 03:33:01;;;;;;;13.25;5.07;;;;;;;;;;5050678;28;20501;-63
2022/11/26 03:35:32;;;;;;;11.32;4.82;;;;;;;;;;5034549;28;20057;-62
2022/11/26 03:38:02;;;;;;;14.65;5.32;;;;;;;;;;5050495;28;20493;-63
2022/11/26 03:40:32;;;;;;;16.80;5.13;;;;;;;;;;5017119;28;20053;-63
2022/11/26 03:43:02;;;;;;;12.95;5.35;;;;;;;;;;5050612;28;20056;-63
2022/11/26 03:45:32;;;;;;;23.08;5.57;;;;;;;;;;5013643;28;20057;-64
2022/11/26 03:48:02;;;;;;;15.95;5.32;;;;;;;;;;5014150;28;21003;-63
2022/11/26 03:50:32;;;;;;;16.33;5.00;;;;;;;;;;4980104;28;21086;-63
2022/11/26 03:53:02;;;;;;;12.90;5.13;;;;;;;;;;4981319;28;20056;-62
2022/11/26 03:55:32;;;;;;;12.40;4.22;;;;;;;;;;4998255;28;20073;-64
2022/11/26 03:58:02;;;;;;;14.45;4.50;;;;;;;;;;4990633;28;20073;-62
2022/11/26 04:00:32;;;;;;;12.75;4.40;;;;;;;;;;4991128;28;20569;-64
2022/11/26 04:03:03;;;;;;;9.55;3.95;;;;;;;;;;4958845;28;20058;-63
2022/11/26 04:05:33;;;;;;;12.25;4.30;;;;;;;;;;4974821;28;20435;-63
2022/11/26 04:08:03;;;;;;;11.85;4.45;;;;;;;;;;4989438;28;20073;-64
2022/11/26 04:10:33;;;;;;;13.55;5.43;;;;;;;;;;5008219;28;20061;-63
2022/11/26 04:13:03;;;;;;;13.30;4.38;;;;;;;;;;5030225;28;20041;-63
2022/11/26 04:15:34;;;;;;;13.15;4.22;;;;;;;;;;5029705;28;20060;-64
2022/11/26 04:18:04;;;;;;;15.23;5.03;;;;;;;;;;5030158;28;20049;-65
2022/11/26 04:20:34;;;;;;;15.43;5.60;;;;;;;;;;5029870;28;20402;-65
2022/11/26 04:23:04;;;;;;;12.95;4.88;;;;;;;;;;5013645;28;20053;-63
2022/11/26 04:25:34;;;;;;;14.65;4.03;;;;;;;;;;5030056;28;20053;-63
2022/11/26 04:28:04;;;;;;;17.90;3.80;;;;;;;;;;5038775;28;20100;-64
2022/11/26 04:30:34;;;;;;;12.18;4.18;;;;;;;;;;5016460;28;20457;-64
2022/11/26 04:33:04;;;;;;;10.77;3.78;;;;;;;;;;4961610;28;20072;-62
2022/11/26 04:35:34;;;;;;;9.10;4.10;;;;;;;;;;5028573;28;20452;-63
2022/11/26 04:38:04;;;;;;;16.63;5.22;;;;;;;;;;5016177;28;20464;-63
2022/11/26 04:40:34;;;;;;;12.68;4.20;;;;;;;;;;5032102;28;20100;-63
2022/11/26 04:43:04;;;;;;;12.05;3.85;;;;;;;;;;5000194;28;20057;-63
2022/11/26 04:45:37;;;;;;;12.45;4.32;;;;;;;;;;5049540;28;20061;-64
2022/11/26 04:48:07;;;;;;;12.40;3.80;;;;;;;;;;5049598;28;20045;-64
2022/11/26 04:50:37;;;;;;;13.82;3.88;;;;;;;;;;4999832;28;20049;-63
2022/11/26 04:53:07;;;;;;;11.02;3.92;;;;;;;;;;5049778;28;20059;-65
2022/11/26 04:55:38;;;;;;;11.75;3.95;;;;;;;;;;5009399;28;20049;-63
2022/11/26 04:58:08;;;;;;;12.65;3.53;;;;;;;;;;5009632;28;20060;-63
2022/11/26 05:00:38;;;;;;;13.82;4.20;;;;;;;;;;5009003;28;20053;-63
2022/11/26 05:03:07;;;;;;;18.50;3.97;;;;;;;;;;5009346;28;20516;-63
2022/11/26 05:05:38;;;;;;;9.30;3.75;;;;;;;;;;4989277;28;20050;-64
2022/11/26 05:08:08;;;;;;;9.60;3.65;;;;;;;;;;4989704;28;20066;-63
2022/11/26 05:10:38;;;;;;;14.23;3.47;;;;;;;;;;4998464;28;20057;-64
2022/11/26 05:13:08;;;;;;;9.77;3.38;;;;;;;;;;5008937;28;20068;-64
2022/11/26 05:15:38;;;;;;;10.13;3.70;;;;;;;;;;5008852;28;20521;-64
2022/11/26 05:18:08;;;;;;;10.90;3.47;;;;;;;;;;5009108;28;20061;-64
2022/11/26 05:20:38;;;;;;;11.35;4.40;;;;;;;;;;4992801;28;20418;-64
2022/11/26 05:23:08;;;;;;;8.13;3.15;;;;;;;;;;5009061;28;20058;-64
2022/11/26 05:25:38;;;;;;;10.07;3.30;;;;;;;;;;4960328;28;21005;-64
2022/11/26 05:28:08;;;;;;;9.95;3.28;;;;;;;;;;5008976;28;20082;-64
2022/11/26 05:30:38;;;;;;;9.68;3.40;;;;;;;;;;5008924;28;20054;-63
2022/11/26 05:33:08;;;;;;;8.63;3.00;;;;;;;;;;4994045;28;20053;-64
2022/11/26 05:35:39;;;;;;;9.68;3.30;;;;;;;;;;5015032;28;20060;-64
2022/11/26 05:38:09;;;;;;;11.07;3.58;;;;;;;;;;5048177;28;20049;-65
2022/11/26 05:40:40;;;;;;;10.88;3.67;;;;;;;;;;5027658;28;20061;-64
2022/11/26 05:43:10;;;;;;;12.90;3.88;;;;;;;;;;5037487;28;20455;-63
2022/11/26 05:45:40;;;;;;;10.32;3.22;;;;;;;;;;5048282;28;20500;-63
2022/11/26 05:48:10;;;;;;;11.68;4.18;;;;;;;;;;5048052;28;20049;-64
2022/11/26 05:50:40;;;;;;;10.23;3.15;;;;;;;;;;4998880;28;20060;-64
2022/11/26 05:53:10;;;;;;;8.75;3.53;;;;;;;;;;5048234;28;20567;-63
2022/11/26 05:55:40;;;;;;;13.90;3.15;;;;;;;;;;5027759;28;20058;-64
2022/11/26 05:58:10;;;;;;;11.20;3.70;;;;;;;;;;4979133;28;20058;-64
2022/11/26 06:00:40;;;;;;;10.93;3.22;;;;;;;;;;5027906;28;20053;-64
2022/11/26 06:03:10;;;;;;;13.00;2.92;;;;;;;;;;4980238;28;20060;-64
2022/11/26 06:05:48;;;;;;;8.73;3.17;;;;;;;;;;5045780;28;20195;-64
2022/11/26 06:08:18;;;;;;;8.90;3.10;;;;;;;;;;5032169;28;20057;-63
2022/11/26 06:10:48;;;;;;;9.68;3.20;;;;;;;;;;5047999;28;20059;-62
2022/11/26 06:13:18;;;;;;;10.00;3.90;;;;;;;;;;5030543;28;20452;-65
2022/11/26 06:15:48;;;;;;;7.28;2.88;;;;;;;;;;5047668;28;20087;-64
2022/11/26 06:18:18;;;;;;;9.15;3.22;;;;;;;;;;5058201;28;20095;-64
2022/11/26 06:20:48;;;;;;;12.55;4.13;;;;;;;;;;5067589;28;20452;-63
2022/11/26 06:23:17;;;;;;;8.23;3.75;;;;;;;;;;5067220;28;20405;-65
2022/11/26 06:25:47;;;;;;;14.48;3.40;;;;;;;;;;5068138;28;20537;-64
2022/11/26 06:28:19;;;;;;;10.88;3.55;;;;;;;;;;5034711;28;20420;-64
2022/11/26 06:30:49;;;;;;;8.15;3.13;;;;;;;;;;5067649;28;20052;-64
2022/11/26 06:33:19;;;;;;;10.23;3.10;;;;;;;;;;5071211;28;20055;-64
2022/11/26 06:35:49;;;;;;;14.82;3.42;;;;;;;;;;5074848;28;20067;-63
2022/11/26 06:38:19;;;;;;;7.88;3.03;;;;;;;;;;5047313;28;20060;-64
2022/11/26 06:40:56;;;;;;;11.05;3.08;;;;;;;;;;5007502;28;20421;-63
2022/11/26 06:43:26;;;;;;;7.38;2.80;;;;;;;;;;5007816;28;20058;-63
2022/11/26 06:46:09;;;;;;;7.28;3.10;;;;;;;;;;4971824;28;20054;-63
2022/11/26 06:48:39;;;;;;;7.25;3.03;;;;;;;;;;4988572;28;20058;-63
2022/11/26 06:51:13;;;;;;;10.50;2.92;;;;;;;;;;4964945;28;20054;-63
2022/11/26 06:53:44;;;;;;;6.57;3.10;;;;;;;;;;4949445;29;20055;-63
2022/11/26 06:56:16;;;;;;;10.05;3.00;;;;;;;;;;4949639;29;20071;-63
2022/11/26 06:58:48;;;;;;;5.80;2.55;;;;;;;;;;4949727;29;20059;-63
2022/11/26 07:01:22;;;;;;;5.10;2.47;;;;;;;;;;4917864;29;20051;-63
2022/11/26 07:03:53;;;;;;;9.27;3.22;;;;;;;;;;4933520;29;20051;-64
2022/11/26 07:06:26;;;;;;;8.07;3.40;;;;;;;;;;4949398;29;20059;-64
2022/11/26 07:09:01;;;;;;;7.50;3.17;;;;;;;;;;4949243;29;20067;-63
2022/11/26 07:11:31;;;;;;;22.00;3.25;;;;;;;;;;4949330;29;20066;-64
2022/11/26 07:14:01;;;;;;;8.20;3.38;;;;;;;;;;4963407;28;20059;-64
2022/11/26 07:16:31;;;;;;;8.68;3.35;;;;;;;;;;4977717;28;20605;-64
2022/11/26 07:19:02;;;;;;;9.40;2.78;;;;;;;;;;5002384;28;20058;-64
2022/11/26 07:21:33;;;;;;;8.32;3.00;;;;;;;;;;5026998;28;20057;-64
2022/11/26 07:24:03;;;;;;;8.27;3.60;;;;;;;;;;5056484;28;20412;-64
2022/11/26 07:26:34;;;;;;;7.90;3.28;;;;;;;;;;5071022;28;20057;-63
2022/11/26 07:29:04;;;;;;;5.93;2.83;;;;;;;;;;5049476;28;20052;-64
2022/11/26 07:31:35;;;;;;;10.00;2.80;;;;;;;;;;5091000;28;20127;-64
2022/11/26 07:34:05;;;;;;;7.85;2.80;;;;;;;;;;5057546;28;20503;-64
2022/11/26 07:36:41;;;;;;;7.28;2.92;;;;;;;;;;5091055;28;20091;-64
2022/11/26 07:39:12;;;;;;;6.50;3.00;;;;;;;;;;5013652;28;20050;-63
2022/11/26 07:41:42;;;;;;;10.82;3.13;;;;;;;;;;5030684;28;20520;-63
2022/11/26 07:44:13;;;;;;;9.23;3.13;;;;;;;;;;5014705;28;20049;-63
2022/11/26 07:46:43;;;;;;;8.25;3.13;;;;;;;;;;5014071;28;20060;-62
2022/11/26 07:49:14;;;;;;;12.68;2.65;;;;;;;;;;5030667;28;20057;-63
2022/11/26 07:51:45;;;;;;;27.98;2.92;;;;;;;;;;4994097;28;20429;-63
2022/11/26 07:54:15;;;;;;;14.43;2.58;;;;;;;;;;5010528;28;20054;-64
2022/11/26 07:56:45;;;;;;;24.95;3.67;;;;;;;;;;5010724;28;20062;-63
2022/11/26 07:59:15;;;;;;;13.45;2.90;;;;;;;;;;5021290;28;20421;-64
2022/11/26 08:01:45;;;;;;;13.95;3.05;;;;;;;;;;5030128;28;20050;-63
2022/11/26 08:04:15;;;;;;;14.60;2.80;;;;;;;;;;5030121;28;20057;-64
2022/11/26 08:06:45;;;;;;;8.95;3.03;;;;;;;;;;5030542;28;20049;-64
2022/11/26 08:09:15;;;;;;;12.15;2.75;;;;;;;;;;5031575;28;20068;-64
2022/11/26 08:11:45;;;;;;;11.13;3.08;;;;;;;;;;5053626;28;20051;-65
2022/11/26 08:14:15;;;;;;;9.23;3.08;;;;;;;;;;5070121;28;20079;-65
2022/11/26 08:16:44;;;;;;;12.05;2.95;;;;;;;;;;5070022;28;20513;-64
2022/11/26 08:19:16;;;;;;;20.90;3.75;;;;;;;;;;5029782;28;20049;-64
2022/11/26 08:21:46;;;;;;;7.40;3.22;;;;;;;;;;5029735;28;20421;-64
2022/11/26 08:24:19;;;;;;;19.08;3.30;;;;;;;;;;5030048;28;20064;-64
2022/11/26 08:26:49;;;;;;;10.10;2.53;;;;;;;;;;5030189;28;20049;-64
2022/11/26 08:29:19;;;;;;;16.88;3.10;;;;;;;;;;5015456;28;20056;-64
2022/11/26 08:31:49;;;;;;;21.42;3.72;;;;;;;;;;5052843;28;20057;-64
2022/11/26 08:34:20;;;;;;;18.90;3.35;;;;;;;;;;5052970;28;20056;-64
2022/11/26 08:36:53;;;;;;;12.35;3.70;;;;;;;;;;5069033;28;20463;-64
2022/11/26 08:39:24;;;;;;;15.52;3.17;;;;;;;;;;5069081;28;20049;-64
2022/11/26 08:41:54;;;;;;;39.30;3.25;;;;;;;;;;5069667;28;20492;-64
2022/11/26 08:44:25;;;;;;;20.23;4.65;;;;;;;;;;5069234;28;20061;-63
2022/11/26 08:46:56;;;;;;;6.78;2.75;;;;;;;;;;5069676;28;20504;-64
2022/11/26 08:49:27;;;;;;;7.40;2.90;;;;;;;;;;5069346;28;20421;-64
2022/11/26 08:51:57;;;;;;;8.27;2.92;;;;;;;;;;5069291;28;20468;-64
2022/11/26 08:54:27;;;;;;;7.97;2.90;;;;;;;;;;5069011;28;20036;-63
2022/11/26 08:56:57;;;;;;;11.75;3.83;;;;;;;;;;5081074;28;20052;-64
2022/11/26 08:59:28;;;;;;;8.60;3.10;;;;;;;;;;5069023;28;20052;-64
2022/11/26 09:01:58;;;;;;;9.60;2.63;;;;;;;;;;5028880;28;20049;-64
2022/11/26 09:04:30;;;;;;;10.82;2.63;;;;;;;;;;4964414;28;20061;-64
2022/11/26 09:07:00;;;;;;;6.20;2.53;;;;;;;;;;4997710;28;20059;-64
2022/11/26 09:09:30;;;;;;;8.65;2.72;;;;;;;;;;4990033;28;20067;-64
2022/11/26 09:12:01;;;;;;;7.35;2.67;;;;;;;;;;4973941;28;20062;-64
2022/11/26 09:14:40;;;;;;;70.38;5.47;;;;;;;;;;4989383;28;20055;-64
2022/11/26 09:17:11;;;;;;;9.38;2.53;;;;;;;;;;4941425;28;20081;-64
2022/11/26 09:19:41;;;;;;;14.00;2.83;;;;;;;;;;4921873;28;20050;-64
2022/11/26 09:22:11;;;;;;;7.47;2.33;;;;;;;;;;4969874;28;20058;-64
2022/11/26 09:24:42;;;;;;;6.07;2.55;;;;;;;;;;4970048;28;20078;-64
2022/11/26 09:27:13;;;;;;;8.25;2.65;;;;;;;;;;4970236;28;20074;-63
2022/11/26 09:29:44;;;;;;;7.25;2.70;;;;;;;;;;4969570;28;20158;-63
2022/11/26 09:32:14;;;;;;;6.15;2.38;;;;;;;;;;4969805;28;20171;-63
2022/11/26 09:34:53;;;;;;;5.85;2.10;;;;;;;;;;4902866;28;20051;-63
2022/11/26 09:37:23;;;;;;;4.82;2.53;;;;;;;;;;4973961;28;20062;-63
2022/11/26 09:39:54;;;;;;;8.88;2.67;;;;;;;;;;5021634;28;20065;-63
2022/11/26 09:42:39;;;;;;;9.38;3.15;;;;;;;;;;5028202;28;20058;-63
2022/11/26 09:45:30;;;;;;;6.93;2.88;;;;;;;;;;5056212;28;20052;-63
2022/11/26 09:48:03;;;;;;;6.90;2.78;;;;;;;;;;5067644;28;20052;-63
2022/11/26 09:50:37;;;;;;;9.48;2.80;;;;;;;;;;5068046;28;20057;-63
2022/11/26 09:53:18;;;;;;;6.95;2.70;;;;;;;;;;5035890;28;20057;-63
2022/11/26 09:55:51;;;;;;;9.20;3.03;;;;;;;;;;5017844;28;20056;-62
2022/11/26 09:58:22;;;;;;;6.93;3.15;;;;;;;;;;5068079;28;20410;-62
2022/11/26 10:00:59;;;;;;;7.03;3.13;;;;;;;;;;5051848;28;20063;-62
2022/11/26 10:03:34;;;;;;;10.68;2.97;;;;;;;;;;5035269;28;20061;-62
2022/11/26 10:06:22;;;;;;;15.25;4.07;;;;;;;;;;5050965;28;20052;-62
2022/11/26 10:09:10;;;;;;;12.52;4.13;;;;;;;;;;5067797;28;20063;-62
2022/11/26 10:11:56;;;;;;;10.30;4.15;;;;;;;;;;5070612;28;20056;-62
2022/11/26 10:15:03;;;;;;;12.75;4.10;;;;;;;;;;5071180;28;20440;-63
2022/11/26 10:17:53;;;;;;;9.98;3.58;;;;;;;;;;5071696;28;20067;-63
2022/11/26 10:20:57;;;;;;;8.13;3.72;;;;;;;;;;5070226;28;20056;-62
2022/11/26 10:23:56;;;;;;;9.70;4.05;;;;;;;;;;5088754;28;20590;-62
2022/11/26 10:26:37;;;;;;;7.38;3.83;;;;;;;;;;5054826;28;20063;-63
2022/11/26 10:29:50;;;;;;;9.10;3.65;;;;;;;;;;5090433;28;20662;-62
2022/11/26 10:32:26;;;;;;;7.45;3.58;;;;;;;;;;5027494;28;20045;-62
2022/11/26 10:34:58;;;;;;;9.73;3.70;;;;;;;;;;4979032;28;20053;-62
2022/11/26 10:37:28;;;;;;;9.45;4.20;;;;;;;;;;5027649;28;20505;-61
2022/11/26 10:40:18;;;;;;;12.18;4.82;;;;;;;;;;5027538;28;20061;-62
2022/11/26 10:42:58;;;;;;;10.15;4.10;;;;;;;;;;5026893;28;20564;-62
2022/11/26 10:45:41;;;;;;;9.15;3.20;;;;;;;;;;4996227;28;20057;-61
2022/11/26 10:48:23;;;;;;;10.40;3.33;;;;;;;;;;5027047;28;20057;-61
2022/11/26 10:50:55;;;;;;;7.65;3.70;;;;;;;;;;5015996;28;20069;-61
2022/11/26 10:53:28;;;;;;;8.00;2.90;;;;;;;;;;5026539;28;20042;-62
2022/11/26 10:56:03;;;;;;;8.80;3.60;;;;;;;;;;5024927;28;20772;-62
2022/11/26 10:58:41;;;;;;;8.05;3.38;;;;;;;;;;5022837;28;20049;-62
2022/11/26 11:01:14;;;;;;;5.78;3.20;;;;;;;;;;5004416;28;20501;-61
2022/11/26 11:04:08;;;;;;;5.03;2.90;;;;;;;;;;5004495;28;20053;-63
2022/11/26 11:06:43;;;;;;;7.20;2.70;;;;;;;;;;4978563;28;20049;-62
2022/11/26 11:09:29;;;;;;;6.68;2.67;;;;;;;;;;4994091;28;20056;-62
2022/11/26 11:12:16;;;;;;;6.28;2.83;;;;;;;;;;4965035;28;20058;-62
2022/11/26 11:14:51;;;;;;;5.63;2.85;;;;;;;;;;4984289;28;20454;-62
2022/11/26 11:17:37;;;;;;;7.38;3.10;;;;;;;;;;5021175;28;20046;-65
2022/11/26 11:20:16;;;;;;;7.43;3.05;;;;;;;;;;5015521;28;20061;-62
2022/11/26 11:22:47;;;;;;;5.85;2.80;;;;;;;;;;5018236;28;20053;-62
2022/11/26 11:25:26;;;;;;;6.40;2.67;;;;;;;;;;5010877;28;20068;-62
2022/11/26 11:28:07;;;;;;;7.82;3.30;;;;;;;;;;5013756;28;20495;-63
2022/11/26 11:30:41;;;;;;;5.15;2.67;;;;;;;;;;5018039;28;20061;-63
2022/11/26 11:33:22;;;;;;;5.30;3.25;;;;;;;;;;5016616;28;20062;-62
2022/11/26 11:36:01;;;;;;;7.45;3.42;;;;;;;;;;5022944;28;20057;-64
2022/11/26 11:38:54;;;;;;;7.13;2.60;;;;;;;;;;5017751;28;20068;-63
2022/11/26 11:41:29;;;;;;;5.47;2.75;;;;;;;;;;5043332;28;20053;-65
2022/11/26 11:44:14;;;;;;;7.93;3.53;;;;;;;;;;5038471;28;20410;-66
2022/11/26 11:47:15;;;;;;;7.38;2.80;;;;;;;;;;5011470;28;20059;-64
2022/11/26 11:49:46;;;;;;;7.90;2.90;;;;;;;;;;4994650;28;20091;-63
2022/11/26 11:52:43;;;;;;;4.70;2.85;;;;;;;;;;5037722;28;20049;-63
2022/11/26 11:55:35;;;;;;;7.68;2.83;;;;;;;;;;5022287;28;20057;-65
2022/11/26 11:58:26;;;;;;;5.50;2.78;;;;;;;;;;5025050;28;20543;-62
2022/11/26 12:01:11;;;;;;;7.75;3.83;;;;;;;;;;4990488;28;20065;-64
2022/11/26 12:04:02;;;;;;;4.95;2.63;;;;;;;;;;5026234;28;20528;-62
2022/11/26 12:07:13;;;;;;;8.35;2.92;;;;;;;;;;5037790;28;20077;-62
2022/11/26 12:10:08;;;;;;;5.13;2.70;;;;;;;;;;5026627;28;20068;-64
2022/11/26 12:12:44;;;;;;;5.70;3.03;;;;;;;;;;5017572;28;20053;-63
2022/11/26 12:15:35;;;;;;;5.50;2.30;;;;;;;;;;5025001;28;20061;-63
2022/11/26 12:18:33;;;;;;;6.85;3.20;;;;;;;;;;5028331;28;20049;-63
2022/11/26 12:21:16;;;;;;;5.72;3.13;;;;;;;;;;5060462;28;20056;-63
2022/11/26 12:23:56;;;;;;;6.28;2.80;;;;;;;;;;5016284;28;20055;-63
2022/11/26 12:26:47;;;;;;;6.47;2.83;;;;;;;;;;5064955;28;20052;-62
2022/11/26 12:29:28;;;;;;;6.45;2.92;;;;;;;;;;5006681;28;20054;-62
2022/11/26 12:32:22;;;;;;;5.43;2.60;;;;;;;;;;5006374;28;20064;-62
2022/11/26 12:34:56;;;;;;;7.70;3.05;;;;;;;;;;5020143;28;20615;-63
2022/11/26 12:37:57;;;;;;;7.35;2.65;;;;;;;;;;4934174;28;20066;-63
2022/11/26 12:40:50;;;;;;;7.22;3.08;;;;;;;;;;4945537;29;20063;-63
2022/11/26 12:43:39;;;;;;;5.82;2.67;;;;;;;;;;4926816;29;20051;-63
2022/11/26 12:47:08;;;;;;;8.68;2.67;;;;;;;;;;4926483;29;20052;-63
2022/11/26 12:50:05;;;;;;;5.60;2.70;;;;;;;;;;4835203;29;20066;-63
2022/11/26 12:52:58;;;;;;;4.65;2.35;;;;;;;;;;4847049;29;20065;-62
2022/11/26 12:55:56;;;;;;;5.28;2.50;;;;;;;;;;4808182;29;20075;-63
2022/11/26 12:58:43;;;;;;;5.25;2.75;;;;;;;;;;4816487;29;20073;-62
2022/11/26 13:01:15;;;;;;;78.93;43.45;;;;;;;;;;4816127;29;20061;-61
2022/11/26 13:03:46;;;;;;;;;;;;;;;;;;4816373;29;20058;-62
2022/11/26 13:06:34;;;;;;;9.27;2.78;;;;;;;;;;4809290;29;20464;-64
2022/11/26 13:09:25;;;;;;;7.05;2.67;;;;;;;;;;4815474;29;20058;-62
2022/11/26 13:12:21;;;;;;;15.38;7.07;;;;;;;;;;4797970;29;20065;-62
2022/11/26 13:15:15;;;;;;;7.68;3.28;;;;;;;;;;4834454;29;20065;-63
2022/11/26 13:17:49;;;;;;;14.25;6.30;;;;;;;;;;4888588;29;20067;-65
2022/11/26 13:20:51;;;;;;;6.55;3.72;;;;;;;;;;4927366;28;20715;-62
2022/11/26 13:23:37;;;;;;;5.82;3.03;;;;;;;;;;4910847;29;20518;-61
2022/11/26 13:26:32;;;;;;;6.18;2.50;;;;;;;;;;4865552;29;20130;-61
2022/11/26 13:29:23;;;;;;;5.47;2.28;;;;;;;;;;4913901;29;20614;-62
2022/11/26 13:32:11;;;;;;;;;;;;;;;;;;4936950;28;20066;-62
2022/11/26 13:34:53;;;;;;;6.50;2.70;;;;;;;;;;4985149;28;20378;-61
2022/11/26 13:38:01;;;;;;;3.33;1.70;;;;;;;;;;4985892;28;20061;-62
2022/11/26 13:40:34;;;;;;;4.47;1.60;;;;;;;;;;4987610;28;20054;-63
2022/11/26 13:43:14;;;;;;;5.07;2.40;;;;;;;;;;4986842;28;20057;-63
2022/11/26 13:46:11;;;;;;;5.95;2.20;;;;;;;;;;4986484;28;20061;-62
2022/11/26 13:49:05;;;;;;;5.03;2.10;;;;;;;;;;4983886;28;20065;-62
2022/11/26 13:51:55;;;;;;;6.85;2.15;;;;;;;;;;4985674;28;20679;-62
2022/11/26 13:54:37;;;;;;;5.60;2.30;;;;;;;;;;4985065;28;20065;-64
2022/11/26 13:57:16;;;;;;;3.25;1.80;;;;;;;;;;4980210;28;20061;-62
2022/11/26 13:59:52;;;;;;;4.22;1.75;;;;;;;;;;5009744;28;20067;-62
2022/11/26 14:02:45;;;;;;;3.75;1.75;;;;;;;;;;5081119;28;20050;-62
2022/11/26 14:05:16;;;;;;;5.38;1.92;;;;;;;;;;5089682;28;20047;-62
2022/11/26 14:07:47;;;;;;;3.83;2.00;;;;;;;;;;5037113;28;20052;-62
2022/11/26 14:10:41;;;;;;;3.35;2.03;;;;;;;;;;5104193;28;20055;-62
2022/11/26 14:13:12;;;;;;;4.13;1.85;;;;;;;;;;5004348;28;20414;-61
2022/11/26 14:15:43;;;;;;;3.92;2.00;;;;;;;;;;4955470;28;20062;-62
2022/11/26 14:18:17;;;;;;;4.65;2.10;;;;;;;;;;5004014;28;20541;-62
2022/11/26 14:20:59;;;;;;;4.75;1.90;;;;;;;;;;5004546;28;20061;-61
2022/11/26 14:23:42;;;;;;;4.05;2.00;;;;;;;;;;5004905;28;20054;-63
2022/11/26 14:26:27;;;;;;;5.50;2.90;;;;;;;;;;5002593;28;20778;-62
2022/11/26 14:29:14;;;;;;;3.60;2.00;;;;;;;;;;4971581;28;20049;-61
2022/11/26 14:31:53;;;;;;;3.28;1.95;;;;;;;;;;5003581;28;20061;-62
2022/11/26 14:34:30;;;;;;;3.40;1.80;;;;;;;;;;5003349;28;20049;-61
2022/11/26 14:37:01;;;;;;;4.43;1.95;;;;;;;;;;5005488;28;20104;-62
2022/11/26 14:39:32;;;;;;;4.13;1.90;;;;;;;;;;4954750;28;20057;-63
2022/11/26 14:42:01;;;;;;;3.33;1.98;;;;;;;;;;5019701;28;20049;-63
2022/11/26 14:44:34;;;;;;;5.05;1.80;;;;;;;;;;4963429;28;20059;-63
2022/11/26 14:47:19;;;;;;;2.67;1.42;;;;;;;;;;4962669;28;20071;-62
2022/11/26 14:49:57;;;;;;;3.42;1.83;;;;;;;;;;4971908;28;20068;-62
2022/11/26 14:52:27;;;;;;;;;;;;;;;;;;5043708;28;20079;-64
2022/11/26 14:54:59;;;;;;;2.70;1.60;;;;;;;;;;5043563;28;19956;-63
2022/11/26 14:57:41;;;;;;;3.35;1.55;;;;;;;;;;5007578;28;20057;-64
2022/11/26 15:00:12;;;;;;;4.93;1.80;;;;;;;;;;4975281;28;20076;-62
2022/11/26 15:02:46;;;;;;;4.82;1.50;;;;;;;;;;5003998;28;20050;-64
2022/11/26 15:05:19;;;;;;;3.00;1.60;;;;;;;;;;5000107;28;20069;-64
2022/11/26 15:08:18;;;;;;;4.20;1.70;;;;;;;;;;4987920;28;20041;-63
2022/11/26 15:10:51;;;;;;;6.07;1.88;;;;;;;;;;4968771;28;20055;-62
2022/11/26 15:13:37;;;;;;;6.35;1.70;;;;;;;;;;4968741;28;20542;-62
2022/11/26 15:16:42;;;;;;;2.70;1.40;;;;;;;;;;4968674;28;20058;-63
2022/11/26 15:19:15;;;;;;;3.08;1.50;;;;;;;;;;4911584;29;20048;-63
2022/11/26 15:21:46;;;;;;;4.10;1.60;;;;;;;;;;4911097;29;20052;-61
2022/11/26 15:24:19;;;;;;;6.28;1.67;;;;;;;;;;4915695;29;20436;-63
2022/11/26 15:26:49;;;;;;;4.35;1.42;;;;;;;;;;4910825;29;20145;-62
2022/11/26 15:29:28;;;;;;;2.47;1.42;;;;;;;;;;4895728;29;20073;-62
2022/11/26 15:31:59;;;;;;;3.95;1.45;;;;;;;;;;4911657;29;20044;-63
2022/11/26 15:34:31;;;;;;;5.95;1.90;;;;;;;;;;4926288;29;20467;-63
2022/11/26 15:37:03;;;;;;;5.57;1.95;;;;;;;;;;4928650;29;20047;-63